sensor_id;sensor_type;location;lat;lon;timestamp;P1;durP1;ratioP1;P2;durP2;ratioP2
69534;SDS011;56754;51.568;5.048;2022-10-22T00:01:38;2.80;;;0.70;;
69534;SDS011;56754;51.568;5.048;2022-10-22T00:04:04;2.93;;;0.63;;
69534;SDS011;56754;51.568;5.048;2022-10-22T00:06:29;2.75;;;0.70;;
69534;SDS011;56754;51.568;5.048;2022-10-22T00:08:55;3.50;;;0.70;;
69534;SDS011;56754;51.568;5.048;2022-10-22T00:11:20;2.73;;;0.67;;
69534;SDS011;56754;51.568;5.048;2022-10-22T00:13:46;3.80;;;0.60;;
69534;SDS011;56754;51.568;5.048;2022-10-22T00:16:12;3.50;;;0.70;;
69534;SDS011;56754;51.568;5.048;2022-10-22T00:18:37;1.90;;;0.60;;
69534;SDS011;56754;51.568;5.048;2022-10-22T00:21:04;2.47;;;0.68;;
69534;SDS011;56754;51.568;5.048;2022-10-22T00:23:30;3.17;;;0.50;;
69534;SDS011;56754;51.568;5.048;2022-10-22T00:25:55;2.23;;;0.70;;
69534;SDS011;56754;51.568;5.048;2022-10-22T00:28:20;2.77;;;0.80;;
69534;SDS011;56754;51.568;5.048;2022-10-22T00:30:46;2.25;;;0.63;;
69534;SDS011;56754;51.568;5.048;2022-10-22T00:33:11;2.60;;;0.67;;
69534;SDS011;56754;51.568;5.048;2022-10-22T00:35:37;2.97;;;0.70;;
69534;SDS011;56754;51.568;5.048;2022-10-22T00:38:02;2.23;;;0.80;;
69534;SDS011;56754;51.568;5.048;2022-10-22T00:40:28;3.28;;;0.98;;
69534;SDS011;56754;51.568;5.048;2022-10-22T00:42:54;3.10;;;0.73;;
69534;SDS011;56754;51.568;5.048;2022-10-22T00:45:24;3.47;;;0.77;;
69534;SDS011;56754;51.568;5.048;2022-10-22T00:50:23;3.15;;;0.90;;
69534;SDS011;56754;51.568;5.048;2022-10-22T00:52:49;3.03;;;0.70;;
69534;SDS011;56754;51.568;5.048;2022-10-22T00:55:15;3.15;;;0.80;;
69534;SDS011;56754;51.568;5.048;2022-10-22T00:57:41;3.47;;;0.80;;
69534;SDS011;56754;51.568;5.048;2022-10-22T01:00:07;5.18;;;0.82;;
69534;SDS011;56754;51.568;5.048;2022-10-22T01:02:33;2.97;;;0.87;;
69534;SDS011;56754;51.568;5.048;2022-10-22T01:04:58;2.93;;;0.73;;
69534;SDS011;56754;51.568;5.048;2022-10-22T01:07:24;3.53;;;1.00;;
69534;SDS011;56754;51.568;5.048;2022-10-22T01:15:14;3.10;;;0.93;;
69534;SDS011;56754;51.568;5.048;2022-10-22T01:31:36;2.15;;;0.70;;
69534;SDS011;56754;51.568;5.048;2022-10-22T01:34:05;3.13;;;0.80;;
69534;SDS011;56754;51.568;5.048;2022-10-22T01:36:33;3.20;;;1.00;;
69534;SDS011;56754;51.568;5.048;2022-10-22T01:39:00;3.53;;;0.90;;
69534;SDS011;56754;51.568;5.048;2022-10-22T01:41:27;3.35;;;0.80;;
69534;SDS011;56754;51.568;5.048;2022-10-22T01:43:53;3.15;;;0.88;;
69534;SDS011;56754;51.568;5.048;2022-10-22T01:46:20;2.97;;;0.90;;
69534;SDS011;56754;51.568;5.048;2022-10-22T01:49:10;6.45;;;1.00;;
69534;SDS011;56754;51.568;5.048;2022-10-22T01:56:53;2.83;;;0.90;;
69534;SDS011;56754;51.568;5.048;2022-10-22T01:59:28;3.37;;;0.90;;
69534;SDS011;56754;51.568;5.048;2022-10-22T02:07:14;3.63;;;0.90;;
69534;SDS011;56754;51.568;5.048;2022-10-22T02:09:45;4.32;;;0.88;;
69534;SDS011;56754;51.568;5.048;2022-10-22T02:12:11;2.65;;;0.88;;
69534;SDS011;56754;51.568;5.048;2022-10-22T02:14:39;2.93;;;0.70;;
69534;SDS011;56754;51.568;5.048;2022-10-22T02:17:09;3.72;;;0.85;;
69534;SDS011;56754;51.568;5.048;2022-10-22T02:19:43;4.00;;;1.13;;
69534;SDS011;56754;51.568;5.048;2022-10-22T02:22:14;4.68;;;1.00;;
69534;SDS011;56754;51.568;5.048;2022-10-22T02:24:40;3.00;;;0.90;;
69534;SDS011;56754;51.568;5.048;2022-10-22T02:29:35;3.03;;;0.80;;
69534;SDS011;56754;51.568;5.048;2022-10-22T02:32:05;3.35;;;0.80;;
69534;SDS011;56754;51.568;5.048;2022-10-22T02:34:32;3.78;;;0.90;;
69534;SDS011;56754;51.568;5.048;2022-10-22T02:36:58;2.80;;;0.73;;
69534;SDS011;56754;51.568;5.048;2022-10-22T02:39:26;2.50;;;0.82;;
69534;SDS011;56754;51.568;5.048;2022-10-22T02:41:52;3.33;;;0.95;;
69534;SDS011;56754;51.568;5.048;2022-10-22T02:44:19;2.37;;;0.80;;
69534;SDS011;56754;51.568;5.048;2022-10-22T02:46:46;3.25;;;0.80;;
69534;SDS011;56754;51.568;5.048;2022-10-22T02:49:12;2.57;;;0.80;;
69534;SDS011;56754;51.568;5.048;2022-10-22T02:51:37;2.73;;;0.67;;
69534;SDS011;56754;51.568;5.048;2022-10-22T02:54:02;1.87;;;0.70;;
69534;SDS011;56754;51.568;5.048;2022-10-22T02:56:28;3.83;;;0.87;;
69534;SDS011;56754;51.568;5.048;2022-10-22T02:58:53;3.70;;;0.90;;
69534;SDS011;56754;51.568;5.048;2022-10-22T03:01:18;4.10;;;0.90;;
69534;SDS011;56754;51.568;5.048;2022-10-22T03:03:44;2.30;;;0.70;;
69534;SDS011;56754;51.568;5.048;2022-10-22T03:06:09;3.17;;;0.83;;
69534;SDS011;56754;51.568;5.048;2022-10-22T03:08:34;3.77;;;0.80;;
69534;SDS011;56754;51.568;5.048;2022-10-22T03:10:59;4.13;;;1.00;;
69534;SDS011;56754;51.568;5.048;2022-10-22T03:13:25;6.87;;;0.80;;
69534;SDS011;56754;51.568;5.048;2022-10-22T03:15:50;3.57;;;0.80;;
69534;SDS011;56754;51.568;5.048;2022-10-22T03:18:16;3.23;;;0.80;;
69534;SDS011;56754;51.568;5.048;2022-10-22T03:20:41;1.85;;;0.55;;
69534;SDS011;56754;51.568;5.048;2022-10-22T03:23:07;2.97;;;0.60;;
69534;SDS011;56754;51.568;5.048;2022-10-22T03:25:33;2.85;;;0.80;;
69534;SDS011;56754;51.568;5.048;2022-10-22T03:28:00;4.55;;;1.08;;
69534;SDS011;56754;51.568;5.048;2022-10-22T03:30:29;3.87;;;0.70;;
69534;SDS011;56754;51.568;5.048;2022-10-22T03:32:54;2.60;;;0.70;;
69534;SDS011;56754;51.568;5.048;2022-10-22T03:35:20;3.83;;;1.10;;
69534;SDS011;56754;51.568;5.048;2022-10-22T03:37:45;2.47;;;0.80;;
69534;SDS011;56754;51.568;5.048;2022-10-22T03:40:10;4.10;;;0.80;;
69534;SDS011;56754;51.568;5.048;2022-10-22T03:42:37;3.38;;;0.80;;
69534;SDS011;56754;51.568;5.048;2022-10-22T03:45:03;3.17;;;0.70;;
69534;SDS011;56754;51.568;5.048;2022-10-22T03:47:29;2.95;;;0.60;;
69534;SDS011;56754;51.568;5.048;2022-10-22T03:49:54;5.23;;;0.90;;
69534;SDS011;56754;51.568;5.048;2022-10-22T03:52:19;3.00;;;0.70;;
69534;SDS011;56754;51.568;5.048;2022-10-22T03:54:45;3.37;;;0.90;;
69534;SDS011;56754;51.568;5.048;2022-10-22T03:57:10;2.57;;;0.77;;
69534;SDS011;56754;51.568;5.048;2022-10-22T03:59:36;3.43;;;1.00;;
69534;SDS011;56754;51.568;5.048;2022-10-22T04:02:04;3.30;;;0.73;;
69534;SDS011;56754;51.568;5.048;2022-10-22T04:04:29;3.35;;;0.80;;
69534;SDS011;56754;51.568;5.048;2022-10-22T04:06:55;2.67;;;0.80;;
69534;SDS011;56754;51.568;5.048;2022-10-22T04:09:21;2.78;;;0.82;;
69534;SDS011;56754;51.568;5.048;2022-10-22T04:11:46;4.43;;;0.60;;
69534;SDS011;56754;51.568;5.048;2022-10-22T04:14:11;2.80;;;0.70;;
69534;SDS011;56754;51.568;5.048;2022-10-22T04:16:40;2.60;;;0.70;;
69534;SDS011;56754;51.568;5.048;2022-10-22T04:19:05;2.50;;;0.88;;
69534;SDS011;56754;51.568;5.048;2022-10-22T04:21:31;3.37;;;0.87;;
69534;SDS011;56754;51.568;5.048;2022-10-22T04:23:56;3.95;;;0.95;;
69534;SDS011;56754;51.568;5.048;2022-10-22T04:26:22;3.53;;;0.80;;
69534;SDS011;56754;51.568;5.048;2022-10-22T04:28:49;4.07;;;0.90;;
69534;SDS011;56754;51.568;5.048;2022-10-22T04:31:16;3.47;;;0.80;;
69534;SDS011;56754;51.568;5.048;2022-10-22T04:33:44;3.85;;;0.70;;
69534;SDS011;56754;51.568;5.048;2022-10-22T04:36:11;3.63;;;0.80;;
69534;SDS011;56754;51.568;5.048;2022-10-22T04:38:38;3.53;;;0.80;;
69534;SDS011;56754;51.568;5.048;2022-10-22T04:41:10;3.53;;;0.88;;
69534;SDS011;56754;51.568;5.048;2022-10-22T04:43:40;4.00;;;0.73;;
69534;SDS011;56754;51.568;5.048;2022-10-22T04:46:06;2.87;;;0.70;;
69534;SDS011;56754;51.568;5.048;2022-10-22T04:48:32;3.65;;;0.88;;
69534;SDS011;56754;51.568;5.048;2022-10-22T04:50:57;3.10;;;0.60;;
69534;SDS011;56754;51.568;5.048;2022-10-22T04:53:23;2.65;;;0.75;;
69534;SDS011;56754;51.568;5.048;2022-10-22T04:55:48;4.13;;;0.90;;
69534;SDS011;56754;51.568;5.048;2022-10-22T04:58:13;3.57;;;1.00;;
69534;SDS011;56754;51.568;5.048;2022-10-22T05:00:38;2.77;;;0.70;;
69534;SDS011;56754;51.568;5.048;2022-10-22T05:03:04;3.20;;;0.80;;
69534;SDS011;56754;51.568;5.048;2022-10-22T05:05:29;4.93;;;0.70;;
69534;SDS011;56754;51.568;5.048;2022-10-22T05:07:54;5.00;;;0.80;;
69534;SDS011;56754;51.568;5.048;2022-10-22T05:10:20;3.33;;;0.80;;
69534;SDS011;56754;51.568;5.048;2022-10-22T05:12:45;5.37;;;1.10;;
69534;SDS011;56754;51.568;5.048;2022-10-22T05:15:10;4.70;;;0.70;;
69534;SDS011;56754;51.568;5.048;2022-10-22T05:17:36;3.20;;;0.80;;
69534;SDS011;56754;51.568;5.048;2022-10-22T05:20:02;4.17;;;0.87;;
69534;SDS011;56754;51.568;5.048;2022-10-22T05:22:28;3.08;;;0.63;;
69534;SDS011;56754;51.568;5.048;2022-10-22T05:24:53;2.47;;;0.67;;
69534;SDS011;56754;51.568;5.048;2022-10-22T05:27:19;3.97;;;0.60;;
69534;SDS011;56754;51.568;5.048;2022-10-22T05:29:44;3.03;;;0.70;;
69534;SDS011;56754;51.568;5.048;2022-10-22T05:32:09;3.73;;;0.70;;
69534;SDS011;56754;51.568;5.048;2022-10-22T05:34:34;3.70;;;0.90;;
69534;SDS011;56754;51.568;5.048;2022-10-22T05:37:00;2.93;;;0.80;;
69534;SDS011;56754;51.568;5.048;2022-10-22T05:39:26;3.90;;;0.70;;
69534;SDS011;56754;51.568;5.048;2022-10-22T05:41:51;3.73;;;0.80;;
69534;SDS011;56754;51.568;5.048;2022-10-22T05:44:16;3.20;;;0.80;;
69534;SDS011;56754;51.568;5.048;2022-10-22T05:46:41;4.33;;;0.70;;
69534;SDS011;56754;51.568;5.048;2022-10-22T05:49:07;4.77;;;0.70;;
69534;SDS011;56754;51.568;5.048;2022-10-22T05:51:36;3.50;;;0.70;;
69534;SDS011;56754;51.568;5.048;2022-10-22T05:54:02;3.83;;;0.90;;
69534;SDS011;56754;51.568;5.048;2022-10-22T05:56:30;3.40;;;0.73;;
69534;SDS011;56754;51.568;5.048;2022-10-22T05:58:55;4.80;;;0.70;;
69534;SDS011;56754;51.568;5.048;2022-10-22T06:01:25;5.63;;;0.90;;
69534;SDS011;56754;51.568;5.048;2022-10-22T06:03:52;3.38;;;0.80;;
69534;SDS011;56754;51.568;5.048;2022-10-22T06:08:46;3.67;;;0.90;;
69534;SDS011;56754;51.568;5.048;2022-10-22T06:11:13;3.75;;;0.80;;
69534;SDS011;56754;51.568;5.048;2022-10-22T06:13:39;2.75;;;0.90;;
69534;SDS011;56754;51.568;5.048;2022-10-22T06:16:05;4.80;;;0.70;;
69534;SDS011;56754;51.568;5.048;2022-10-22T06:18:30;4.77;;;1.00;;
69534;SDS011;56754;51.568;5.048;2022-10-22T06:21:02;5.38;;;0.82;;
69534;SDS011;56754;51.568;5.048;2022-10-22T06:23:31;3.78;;;0.90;;
69534;SDS011;56754;51.568;5.048;2022-10-22T06:25:57;5.13;;;0.90;;
69534;SDS011;56754;51.568;5.048;2022-10-22T06:28:23;5.85;;;0.90;;
69534;SDS011;56754;51.568;5.048;2022-10-22T06:30:48;3.33;;;0.90;;
69534;SDS011;56754;51.568;5.048;2022-10-22T06:33:14;4.47;;;0.90;;
69534;SDS011;56754;51.568;5.048;2022-10-22T06:35:39;3.97;;;0.90;;
69534;SDS011;56754;51.568;5.048;2022-10-22T06:38:04;5.78;;;1.08;;
69534;SDS011;56754;51.568;5.048;2022-10-22T06:40:29;4.67;;;1.07;;
69534;SDS011;56754;51.568;5.048;2022-10-22T06:42:55;4.30;;;0.87;;
69534;SDS011;56754;51.568;5.048;2022-10-22T06:45:22;6.35;;;0.90;;
69534;SDS011;56754;51.568;5.048;2022-10-22T06:47:47;5.10;;;1.20;;
69534;SDS011;56754;51.568;5.048;2022-10-22T06:50:13;5.57;;;1.10;;
69534;SDS011;56754;51.568;5.048;2022-10-22T06:52:38;4.60;;;0.80;;
69534;SDS011;56754;51.568;5.048;2022-10-22T06:55:03;3.40;;;0.80;;
69534;SDS011;56754;51.568;5.048;2022-10-22T06:57:29;5.47;;;1.10;;
69534;SDS011;56754;51.568;5.048;2022-10-22T06:59:54;5.23;;;0.80;;
69534;SDS011;56754;51.568;5.048;2022-10-22T07:02:20;5.20;;;0.90;;
69534;SDS011;56754;51.568;5.048;2022-10-22T07:04:45;5.73;;;0.97;;
69534;SDS011;56754;51.568;5.048;2022-10-22T07:07:10;5.30;;;0.70;;
69534;SDS011;56754;51.568;5.048;2022-10-22T07:09:36;3.63;;;0.90;;
69534;SDS011;56754;51.568;5.048;2022-10-22T07:12:01;4.27;;;1.00;;
69534;SDS011;56754;51.568;5.048;2022-10-22T07:14:26;8.77;;;1.33;;
69534;SDS011;56754;51.568;5.048;2022-10-22T07:16:52;6.17;;;1.20;;
69534;SDS011;56754;51.568;5.048;2022-10-22T07:19:17;5.97;;;1.30;;
69534;SDS011;56754;51.568;5.048;2022-10-22T07:21:42;8.60;;;1.20;;
69534;SDS011;56754;51.568;5.048;2022-10-22T07:24:07;7.63;;;1.53;;
69534;SDS011;56754;51.568;5.048;2022-10-22T07:26:33;4.73;;;1.10;;
69534;SDS011;56754;51.568;5.048;2022-10-22T07:28:58;10.02;;;1.60;;
69534;SDS011;56754;51.568;5.048;2022-10-22T07:31:24;9.00;;;1.40;;
69534;SDS011;56754;51.568;5.048;2022-10-22T07:33:49;8.10;;;1.37;;
69534;SDS011;56754;51.568;5.048;2022-10-22T07:36:15;7.13;;;1.60;;
69534;SDS011;56754;51.568;5.048;2022-10-22T07:38:40;6.77;;;1.27;;
69534;SDS011;56754;51.568;5.048;2022-10-22T07:41:06;8.17;;;1.83;;
69534;SDS011;56754;51.568;5.048;2022-10-22T07:43:31;9.47;;;2.10;;
69534;SDS011;56754;51.568;5.048;2022-10-22T07:45:56;7.30;;;1.60;;
69534;SDS011;56754;51.568;5.048;2022-10-22T07:48:22;9.55;;;1.52;;
69534;SDS011;56754;51.568;5.048;2022-10-22T07:50:48;8.77;;;1.33;;
69534;SDS011;56754;51.568;5.048;2022-10-22T07:53:14;7.93;;;1.20;;
69534;SDS011;56754;51.568;5.048;2022-10-22T07:55:40;7.37;;;1.43;;
69534;SDS011;56754;51.568;5.048;2022-10-22T07:58:05;9.30;;;1.60;;
69534;SDS011;56754;51.568;5.048;2022-10-22T08:00:30;6.33;;;1.20;;
69534;SDS011;56754;51.568;5.048;2022-10-22T08:02:56;9.73;;;1.33;;
69534;SDS011;56754;51.568;5.048;2022-10-22T08:05:21;10.20;;;1.47;;
69534;SDS011;56754;51.568;5.048;2022-10-22T08:07:46;7.40;;;1.20;;
69534;SDS011;56754;51.568;5.048;2022-10-22T08:10:11;8.13;;;1.33;;
69534;SDS011;56754;51.568;5.048;2022-10-22T08:12:37;8.47;;;1.23;;
69534;SDS011;56754;51.568;5.048;2022-10-22T08:15:03;7.32;;;1.20;;
69534;SDS011;56754;51.568;5.048;2022-10-22T08:17:29;11.80;;;1.50;;
69534;SDS011;56754;51.568;5.048;2022-10-22T08:19:54;8.23;;;1.30;;
69534;SDS011;56754;51.568;5.048;2022-10-22T08:22:19;5.70;;;1.40;;
69534;SDS011;56754;51.568;5.048;2022-10-22T08:24:45;7.77;;;1.30;;
69534;SDS011;56754;51.568;5.048;2022-10-22T08:27:10;9.60;;;1.57;;
69534;SDS011;56754;51.568;5.048;2022-10-22T08:29:35;9.70;;;1.38;;
69534;SDS011;56754;51.568;5.048;2022-10-22T08:32:01;7.57;;;1.37;;
69534;SDS011;56754;51.568;5.048;2022-10-22T08:34:26;8.03;;;1.47;;
69534;SDS011;56754;51.568;5.048;2022-10-22T08:36:51;6.37;;;0.90;;
69534;SDS011;56754;51.568;5.048;2022-10-22T08:39:16;8.33;;;1.57;;
69534;SDS011;56754;51.568;5.048;2022-10-22T08:41:54;7.67;;;1.50;;
69534;SDS011;56754;51.568;5.048;2022-10-22T08:49:55;8.95;;;1.40;;
69534;SDS011;56754;51.568;5.048;2022-10-22T08:52:24;6.70;;;1.00;;
69534;SDS011;56754;51.568;5.048;2022-10-22T08:57:30;8.20;;;1.17;;
69534;SDS011;56754;51.568;5.048;2022-10-22T09:02:34;6.90;;;1.30;;
69534;SDS011;56754;51.568;5.048;2022-10-22T09:05:15;7.95;;;1.10;;
69534;SDS011;56754;51.568;5.048;2022-10-22T09:07:51;6.90;;;1.08;;
69534;SDS011;56754;51.568;5.048;2022-10-22T09:10:19;4.78;;;1.10;;
69534;SDS011;56754;51.568;5.048;2022-10-22T09:12:50;8.73;;;0.98;;
69534;SDS011;56754;51.568;5.048;2022-10-22T09:15:15;5.53;;;0.93;;
69534;SDS011;56754;51.568;5.048;2022-10-22T09:20:48;7.07;;;1.33;;
69534;SDS011;56754;51.568;5.048;2022-10-22T09:25:46;7.43;;;1.33;;
69534;SDS011;56754;51.568;5.048;2022-10-22T09:28:12;6.13;;;1.00;;
69534;SDS011;56754;51.568;5.048;2022-10-22T09:30:38;8.60;;;1.20;;
69534;SDS011;56754;51.568;5.048;2022-10-22T09:33:19;7.40;;;1.45;;
69534;SDS011;56754;51.568;5.048;2022-10-22T09:35:57;7.93;;;1.33;;
69534;SDS011;56754;51.568;5.048;2022-10-22T09:38:37;8.70;;;1.27;;
69534;SDS011;56754;51.568;5.048;2022-10-22T09:41:08;7.78;;;1.42;;
69534;SDS011;56754;51.568;5.048;2022-10-22T09:43:33;5.80;;;1.00;;
69534;SDS011;56754;51.568;5.048;2022-10-22T09:46:00;5.67;;;1.20;;
69534;SDS011;56754;51.568;5.048;2022-10-22T09:48:34;5.35;;;0.90;;
69534;SDS011;56754;51.568;5.048;2022-10-22T09:51:12;6.10;;;1.20;;
69534;SDS011;56754;51.568;5.048;2022-10-22T09:53:40;8.30;;;1.35;;
69534;SDS011;56754;51.568;5.048;2022-10-22T09:56:24;7.88;;;1.40;;
69534;SDS011;56754;51.568;5.048;2022-10-22T09:58:49;7.53;;;1.20;;
69534;SDS011;56754;51.568;5.048;2022-10-22T10:01:15;6.20;;;1.05;;
69534;SDS011;56754;51.568;5.048;2022-10-22T10:04:03;5.03;;;0.90;;
69534;SDS011;56754;51.568;5.048;2022-10-22T10:06:31;7.28;;;1.17;;
69534;SDS011;56754;51.568;5.048;2022-10-22T10:08:58;7.47;;;1.45;;
69534;SDS011;56754;51.568;5.048;2022-10-22T10:19:08;7.57;;;1.30;;
69534;SDS011;56754;51.568;5.048;2022-10-22T10:43:47;6.40;;;1.00;;
69534;SDS011;56754;51.568;5.048;2022-10-22T10:48:50;7.37;;;1.17;;
69534;SDS011;56754;51.568;5.048;2022-10-22T10:57:08;5.07;;;1.20;;
69534;SDS011;56754;51.568;5.048;2022-10-22T11:08:13;6.75;;;1.10;;
69534;SDS011;56754;51.568;5.048;2022-10-22T11:10:45;4.10;;;1.10;;
69534;SDS011;56754;51.568;5.048;2022-10-22T11:13:20;8.50;;;1.57;;
69534;SDS011;56754;51.568;5.048;2022-10-22T11:16:08;6.55;;;1.13;;
69534;SDS011;56754;51.568;5.048;2022-10-22T11:24:27;5.07;;;0.95;;
69534;SDS011;56754;51.568;5.048;2022-10-22T11:27:09;5.40;;;1.20;;
69534;SDS011;56754;51.568;5.048;2022-10-22T11:29:46;8.00;;;1.48;;
69534;SDS011;56754;51.568;5.048;2022-10-22T11:32:18;12.10;;;2.05;;
69534;SDS011;56754;51.568;5.048;2022-10-22T11:34:50;12.02;;;1.85;;
69534;SDS011;56754;51.568;5.048;2022-10-22T11:37:21;9.52;;;1.30;;
69534;SDS011;56754;51.568;5.048;2022-10-22T11:39:50;9.87;;;2.10;;
69534;SDS011;56754;51.568;5.048;2022-10-22T11:42:37;6.97;;;1.35;;
69534;SDS011;56754;51.568;5.048;2022-10-22T11:50:26;6.57;;;1.65;;
69534;SDS011;56754;51.568;5.048;2022-10-22T11:58:22;5.23;;;1.10;;
69534;SDS011;56754;51.568;5.048;2022-10-22T12:00:49;9.02;;;1.40;;
69534;SDS011;56754;51.568;5.048;2022-10-22T12:03:15;4.93;;;1.03;;
69534;SDS011;56754;51.568;5.048;2022-10-22T12:05:45;5.93;;;1.10;;
69534;SDS011;56754;51.568;5.048;2022-10-22T12:08:28;5.57;;;1.15;;
69534;SDS011;56754;51.568;5.048;2022-10-22T12:11:02;4.90;;;1.20;;
69534;SDS011;56754;51.568;5.048;2022-10-22T12:13:31;8.07;;;1.50;;
69534;SDS011;56754;51.568;5.048;2022-10-22T12:16:14;8.15;;;1.30;;
69534;SDS011;56754;51.568;5.048;2022-10-22T12:18:40;4.03;;;1.02;;
69534;SDS011;56754;51.568;5.048;2022-10-22T12:21:12;6.55;;;1.20;;
69534;SDS011;56754;51.568;5.048;2022-10-22T12:23:39;9.03;;;1.43;;
69534;SDS011;56754;51.568;5.048;2022-10-22T12:26:04;7.65;;;1.13;;
69534;SDS011;56754;51.568;5.048;2022-10-22T12:28:36;5.87;;;1.20;;
69534;SDS011;56754;51.568;5.048;2022-10-22T12:31:04;4.82;;;0.93;;
69534;SDS011;56754;51.568;5.048;2022-10-22T12:33:29;5.97;;;1.00;;
69534;SDS011;56754;51.568;5.048;2022-10-22T12:35:54;6.87;;;1.20;;
69534;SDS011;56754;51.568;5.048;2022-10-22T12:38:22;7.10;;;1.30;;
69534;SDS011;56754;51.568;5.048;2022-10-22T12:40:49;7.13;;;0.98;;
69534;SDS011;56754;51.568;5.048;2022-10-22T12:43:19;5.82;;;0.90;;
69534;SDS011;56754;51.568;5.048;2022-10-22T12:45:49;6.05;;;1.00;;
69534;SDS011;56754;51.568;5.048;2022-10-22T12:48:16;6.10;;;1.07;;
69534;SDS011;56754;51.568;5.048;2022-10-22T12:50:47;4.88;;;0.85;;
69534;SDS011;56754;51.568;5.048;2022-10-22T12:56:09;7.43;;;1.05;;
69534;SDS011;56754;51.568;5.048;2022-10-22T12:58:40;8.68;;;0.90;;
69534;SDS011;56754;51.568;5.048;2022-10-22T13:01:17;5.27;;;1.10;;
69534;SDS011;56754;51.568;5.048;2022-10-22T13:03:44;7.25;;;1.25;;
69534;SDS011;56754;51.568;5.048;2022-10-22T13:08:37;7.33;;;1.20;;
69534;SDS011;56754;51.568;5.048;2022-10-22T13:11:06;5.65;;;1.00;;
69534;SDS011;56754;51.568;5.048;2022-10-22T13:18:49;3.80;;;0.80;;
69534;SDS011;56754;51.568;5.048;2022-10-22T13:21:58;5.57;;;0.90;;
69534;SDS011;56754;51.568;5.048;2022-10-22T13:24:21;6.95;;;1.20;;
69534;SDS011;56754;51.568;5.048;2022-10-22T13:26:48;5.50;;;1.13;;
69534;SDS011;56754;51.568;5.048;2022-10-22T13:29:16;5.07;;;1.17;;
69534;SDS011;56754;51.568;5.048;2022-10-22T13:31:45;6.05;;;1.38;;
69534;SDS011;56754;51.568;5.048;2022-10-22T13:34:14;6.88;;;1.30;;
69534;SDS011;56754;51.568;5.048;2022-10-22T13:36:42;5.82;;;1.00;;
69534;SDS011;56754;51.568;5.048;2022-10-22T13:39:11;4.47;;;1.00;;
69534;SDS011;56754;51.568;5.048;2022-10-22T13:41:40;4.10;;;1.00;;
69534;SDS011;56754;51.568;5.048;2022-10-22T13:44:05;6.60;;;1.20;;
69534;SDS011;56754;51.568;5.048;2022-10-22T13:46:30;5.23;;;1.13;;
69534;SDS011;56754;51.568;5.048;2022-10-22T13:48:56;5.17;;;0.93;;
69534;SDS011;56754;51.568;5.048;2022-10-22T13:51:23;5.28;;;0.90;;
69534;SDS011;56754;51.568;5.048;2022-10-22T13:53:53;5.10;;;0.80;;
69534;SDS011;56754;51.568;5.048;2022-10-22T13:56:19;4.88;;;1.20;;
69534;SDS011;56754;51.568;5.048;2022-10-22T13:58:45;5.43;;;0.90;;
69534;SDS011;56754;51.568;5.048;2022-10-22T14:03:45;3.63;;;0.80;;
69534;SDS011;56754;51.568;5.048;2022-10-22T14:06:14;4.95;;;0.90;;
69534;SDS011;56754;51.568;5.048;2022-10-22T14:08:42;4.10;;;0.95;;
69534;SDS011;56754;51.568;5.048;2022-10-22T14:11:11;4.90;;;1.00;;
69534;SDS011;56754;51.568;5.048;2022-10-22T14:13:37;4.53;;;0.93;;
69534;SDS011;56754;51.568;5.048;2022-10-22T14:16:03;4.55;;;0.90;;
69534;SDS011;56754;51.568;5.048;2022-10-22T14:18:30;3.97;;;0.80;;
69534;SDS011;56754;51.568;5.048;2022-10-22T14:20:57;5.03;;;0.90;;
69534;SDS011;56754;51.568;5.048;2022-10-22T14:23:28;3.25;;;0.70;;
69534;SDS011;56754;51.568;5.048;2022-10-22T14:25:54;5.05;;;0.82;;
69534;SDS011;56754;51.568;5.048;2022-10-22T14:28:20;4.77;;;1.00;;
69534;SDS011;56754;51.568;5.048;2022-10-22T14:30:45;7.70;;;1.05;;
69534;SDS011;56754;51.568;5.048;2022-10-22T14:33:15;3.37;;;0.70;;
69534;SDS011;56754;51.568;5.048;2022-10-22T14:35:43;3.42;;;0.80;;
69534;SDS011;56754;51.568;5.048;2022-10-22T14:38:09;5.00;;;1.00;;
69534;SDS011;56754;51.568;5.048;2022-10-22T14:40:34;4.13;;;0.80;;
69534;SDS011;56754;51.568;5.048;2022-10-22T14:42:59;3.93;;;0.77;;
69534;SDS011;56754;51.568;5.048;2022-10-22T14:45:25;4.63;;;0.97;;
69534;SDS011;56754;51.568;5.048;2022-10-22T14:47:51;4.07;;;0.88;;
69534;SDS011;56754;51.568;5.048;2022-10-22T14:50:17;4.35;;;0.68;;
69534;SDS011;56754;51.568;5.048;2022-10-22T14:52:43;3.93;;;0.80;;
69534;SDS011;56754;51.568;5.048;2022-10-22T14:55:09;4.10;;;0.70;;
69534;SDS011;56754;51.568;5.048;2022-10-22T14:57:36;4.78;;;0.82;;
69534;SDS011;56754;51.568;5.048;2022-10-22T15:00:03;4.50;;;0.83;;
69534;SDS011;56754;51.568;5.048;2022-10-22T15:02:29;4.97;;;0.90;;
69534;SDS011;56754;51.568;5.048;2022-10-22T15:04:54;5.03;;;1.00;;
69534;SDS011;56754;51.568;5.048;2022-10-22T15:07:20;5.53;;;1.10;;
69534;SDS011;56754;51.568;5.048;2022-10-22T15:09:45;4.77;;;1.00;;
69534;SDS011;56754;51.568;5.048;2022-10-22T15:12:10;5.83;;;1.00;;
69534;SDS011;56754;51.568;5.048;2022-10-22T15:14:35;4.07;;;0.90;;
69534;SDS011;56754;51.568;5.048;2022-10-22T15:17:01;4.30;;;1.00;;
69534;SDS011;56754;51.568;5.048;2022-10-22T15:19:26;5.87;;;0.97;;
69534;SDS011;56754;51.568;5.048;2022-10-22T15:21:51;5.90;;;0.97;;
69534;SDS011;56754;51.568;5.048;2022-10-22T15:24:16;7.00;;;1.03;;
69534;SDS011;56754;51.568;5.048;2022-10-22T15:26:42;3.53;;;1.00;;
69534;SDS011;56754;51.568;5.048;2022-10-22T15:29:07;5.73;;;0.97;;
69534;SDS011;56754;51.568;5.048;2022-10-22T15:31:49;5.50;;;1.37;;
69534;SDS011;56754;51.568;5.048;2022-10-22T15:34:17;3.77;;;0.87;;
69534;SDS011;56754;51.568;5.048;2022-10-22T15:36:50;5.10;;;0.98;;
69534;SDS011;56754;51.568;5.048;2022-10-22T15:39:18;5.50;;;1.27;;
69534;SDS011;56754;51.568;5.048;2022-10-22T15:41:44;5.27;;;1.23;;
69534;SDS011;56754;51.568;5.048;2022-10-22T15:44:13;7.63;;;1.13;;
69534;SDS011;56754;51.568;5.048;2022-10-22T15:46:40;4.80;;;1.20;;
69534;SDS011;56754;51.568;5.048;2022-10-22T15:49:05;6.57;;;1.10;;
69534;SDS011;56754;51.568;5.048;2022-10-22T15:51:31;8.73;;;0.90;;
69534;SDS011;56754;51.568;5.048;2022-10-22T15:53:57;5.55;;;1.20;;
69534;SDS011;56754;51.568;5.048;2022-10-22T15:56:23;5.60;;;1.10;;
69534;SDS011;56754;51.568;5.048;2022-10-22T15:58:54;5.18;;;1.10;;
69534;SDS011;56754;51.568;5.048;2022-10-22T16:01:20;5.03;;;1.20;;
69534;SDS011;56754;51.568;5.048;2022-10-22T16:03:45;4.40;;;1.13;;
69534;SDS011;56754;51.568;5.048;2022-10-22T16:06:11;6.50;;;1.10;;
69534;SDS011;56754;51.568;5.048;2022-10-22T16:08:36;4.20;;;0.90;;
69534;SDS011;56754;51.568;5.048;2022-10-22T16:11:02;4.45;;;1.13;;
69534;SDS011;56754;51.568;5.048;2022-10-22T16:13:27;5.40;;;0.90;;
69534;SDS011;56754;51.568;5.048;2022-10-22T16:15:53;3.80;;;1.00;;
69534;SDS011;56754;51.568;5.048;2022-10-22T16:18:18;6.35;;;1.17;;
69534;SDS011;56754;51.568;5.048;2022-10-22T16:20:44;4.83;;;1.10;;
69534;SDS011;56754;51.568;5.048;2022-10-22T16:23:10;4.68;;;1.20;;
69534;SDS011;56754;51.568;5.048;2022-10-22T16:25:42;6.57;;;1.27;;
69534;SDS011;56754;51.568;5.048;2022-10-22T16:28:08;9.20;;;1.55;;
69534;SDS011;56754;51.568;5.048;2022-10-22T16:30:35;6.25;;;1.40;;
69534;SDS011;56754;51.568;5.048;2022-10-22T16:33:02;4.60;;;1.10;;
69534;SDS011;56754;51.568;5.048;2022-10-22T16:35:28;7.10;;;1.60;;
69534;SDS011;56754;51.568;5.048;2022-10-22T16:37:54;6.32;;;1.50;;
69534;SDS011;56754;51.568;5.048;2022-10-22T16:40:19;5.60;;;1.40;;
69534;SDS011;56754;51.568;5.048;2022-10-22T16:42:45;6.45;;;1.50;;
69534;SDS011;56754;51.568;5.048;2022-10-22T16:45:10;5.83;;;1.70;;
69534;SDS011;56754;51.568;5.048;2022-10-22T16:47:36;5.67;;;1.87;;
69534;SDS011;56754;51.568;5.048;2022-10-22T16:50:01;6.97;;;2.00;;
69534;SDS011;56754;51.568;5.048;2022-10-22T16:52:26;7.43;;;1.90;;
69534;SDS011;56754;51.568;5.048;2022-10-22T16:54:52;6.13;;;1.73;;
69534;SDS011;56754;51.568;5.048;2022-10-22T16:57:17;6.47;;;1.80;;
69534;SDS011;56754;51.568;5.048;2022-10-22T16:59:42;7.37;;;2.00;;